Time;durP1;ratioP1;P1;durP2;ratioP2;P2;SDS_P1;SDS_P2;PMS_P1;PMS_P2;Temp;Humidity;BMP_temperature;BMP_pressure;BME280_temperature;BME280_humidity;BME280_pressure;Samples;Min_cycle;Max_cycle;Signal;HPM_P1;HPM_P2
2022/02/08 00:00:29;;;;;;;60.38;27.27;;;;;;;3.65;100.00;98902.12;1714197;82;21298;-79
2022/02/08 00:03:34;;;;;;;53.73;26.60;;;;;;;3.66;100.00;98903.80;1794957;79;21422;-80
2022/02/08 00:06:46;;;;;;;60.88;27.35;;;;;;;3.68;100.00;98919.88;1768880;81;21295;-80
2022/02/08 00:09:52;;;;;;;73.70;30.00;;;;;;;3.69;100.00;98935.93;1768910;81;21310;-80
2022/02/08 00:12:58;;;;;;;76.47;34.63;;;;;;;3.68;100.00;98934.25;1768419;81;22136;-80
2022/02/08 00:16:04;;;;;;;69.47;29.98;;;;;;;3.66;100.00;98947.07;1769119;81;21782;-80
2022/02/08 00:19:09;;;;;;;72.27;30.02;;;;;;;3.63;100.00;98948.77;1734338;82;21339;-80
2022/02/08 00:22:15;;;;;;;56.63;27.80;;;;;;;3.59;100.00;98953.66;1743631;82;21715;-80
2022/02/08 00:25:21;;;;;;;62.65;27.37;;;;;;;3.56;100.00;98940.45;1713897;83;21390;-80
2022/02/08 00:28:26;;;;;;;67.50;31.57;;;;;;;3.50;100.00;98929.47;1743608;82;21287;-79
2022/02/08 00:31:31;;;;;;;61.90;27.42;;;;;;;3.43;100.00;98925.72;1742974;82;21281;-79
2022/02/08 00:34:37;;;;;;;68.25;29.48;;;;;;;3.41;100.00;98930.45;1744297;82;21303;-80
2022/02/08 00:37:42;;;;;;;67.90;29.98;;;;;;;3.37;100.00;98929.08;1745582;82;21173;-80
2022/02/08 00:40:49;;;;;;;67.67;29.87;;;;;;;3.35;100.00;98931.12;1745868;82;21292;-80
2022/02/08 00:47:16;;;;;;;71.00;30.02;;;;;;;3.36;100.00;98920.13;1744671;81;22028;-79
2022/02/08 00:50:10;;;;;;;56.80;26.73;;;;;;;3.36;100.00;98921.48;1742247;82;21311;-80
2022/02/08 00:53:15;;;;;;;64.53;27.45;;;;;;;3.32;100.00;98915.55;1743159;82;21312;-80
2022/02/08 00:56:20;;;;;;;55.98;27.80;;;;;;;3.28;100.00;98904.72;1743377;82;21276;-79
2022/02/08 00:59:26;;;;;;;65.05;29.00;;;;;;;3.28;100.00;98897.97;1741975;82;21207;-78
2022/02/08 01:02:32;;;;;;;68.17;29.05;;;;;;;3.27;100.00;98910.30;1743863;82;21311;-78
2022/02/08 01:05:46;;;;;;;65.05;28.85;;;;;;;3.25;100.00;98910.48;1709989;82;21204;-78
2022/02/08 01:08:48;;;;;;;57.13;25.45;;;;;;;3.25;100.00;98905.08;1740294;82;21362;-79
2022/02/08 01:11:55;;;;;;;56.05;26.33;;;;;;;3.25;100.00;98911.83;1740244;82;21301;-79
2022/02/08 01:15:01;;;;;;;60.12;27.67;;;;;;;3.25;100.00;98907.77;1726325;82;22526;-79
2022/02/08 01:18:08;;;;;;;59.35;27.17;;;;;;;3.27;100.00;98916.55;1709255;84;21238;-79
2022/02/08 01:21:14;;;;;;;57.13;25.57;;;;;;;3.34;100.00;98932.98;1684627;84;21931;-78
2022/02/08 01:24:19;;;;;;;52.98;24.72;;;;;;;3.40;100.00;98924.20;1731719;82;21391;-78
2022/02/08 01:27:30;;;;;;;57.45;25.68;;;;;;;3.45;100.00;98922.36;1767881;81;21216;-79
2022/02/08 01:30:47;;;;;;;37.67;21.27;;;;;;;3.47;100.00;98921.67;1784428;79;21693;-78
2022/02/08 01:47:18;;;;;;;41.00;21.05;;;;;;;3.33;100.00;98905.08;1768594;81;21287;-79
2022/02/08 01:50:17;;;;;;;44.88;22.75;;;;;;;3.30;100.00;98906.77;1770093;81;21308;-79
2022/02/08 01:53:22;;;;;;;48.02;24.40;;;;;;;3.27;100.00;98911.14;1770416;81;21287;-79
2022/02/08 01:56:28;;;;;;;48.30;25.17;;;;;;;3.25;100.00;98912.34;1770155;81;21330;-78
2022/02/08 01:59:34;;;;;;;40.25;22.20;;;;;;;3.26;100.00;98913.52;1777957;79;21307;-78
2022/02/08 02:02:39;;;;;;;39.40;21.05;;;;;;;3.27;100.00;98912.50;1802090;79;21886;-79
2022/02/08 02:05:47;;;;;;;38.48;21.90;;;;;;;3.26;100.00;98920.27;1733830;82;21197;-79
2022/02/08 02:08:53;;;;;;;51.88;27.82;;;;;;;3.31;100.00;98921.13;1801965;79;21338;-78
2022/02/08 02:12:06;;;;;;;44.60;24.12;;;;;;;3.32;100.00;98922.31;1801805;79;21909;-79
2022/02/08 02:15:12;;;;;;;37.30;22.10;;;;;;;3.32;100.00;98921.47;1785093;79;21406;-79
2022/02/08 02:18:17;;;;;;;41.42;22.65;;;;;;;3.32;100.00;98922.81;1769888;81;21284;-79
2022/02/08 02:21:23;;;;;;;42.45;22.60;;;;;;;3.32;100.00;98923.66;1772182;80;21283;-79
2022/02/08 02:24:28;;;;;;;37.90;21.90;;;;;;;3.32;100.00;98924.17;1777873;80;21326;-79
2022/02/08 02:27:34;;;;;;;37.40;21.80;;;;;;;3.30;100.00;98924.34;1777646;80;21335;-79
2022/02/08 02:30:40;;;;;;;43.30;25.05;;;;;;;3.27;100.00;98921.11;1778468;80;21822;-78
2022/02/08 02:33:46;;;;;;;37.38;21.97;;;;;;;3.25;100.00;98929.39;1778233;80;21350;-78
2022/02/08 02:36:52;;;;;;;37.00;21.70;;;;;;;3.28;100.00;98937.16;1778547;80;21286;-78
2022/02/08 02:39:52;;;;;;;34.45;20.60;;;;;;;3.32;100.00;98939.03;1777157;80;21332;-79
2022/02/08 02:42:59;;;;;;;30.10;18.73;;;;;;;3.33;100.00;98935.31;1778363;80;21337;-78
2022/02/08 02:46:04;;;;;;;29.70;19.42;;;;;;;3.30;100.00;98940.56;1776941;80;21354;-79
2022/02/08 02:49:10;;;;;;;41.20;22.10;;;;;;;3.30;100.00;98939.20;1777995;80;21204;-79
2022/02/08 02:52:15;;;;;;;29.02;20.23;;;;;;;3.27;100.00;98944.92;1778308;80;21838;-79
2022/02/08 02:55:22;;;;;;;34.30;20.27;;;;;;;3.26;100.00;98944.59;1777832;80;21878;-79
2022/02/08 02:58:31;;;;;;;32.30;21.37;;;;;;;3.26;100.00;98940.54;1778352;80;21213;-79
2022/02/08 03:02:34;;;;;;;32.83;20.77;;;;;;;3.22;100.00;98943.22;1778306;80;21901;-78
2022/02/08 03:21:20;;;;;;;32.67;21.15;;;;;;;3.23;100.00;98940.85;1777484;80;21338;-80
2022/02/08 03:24:25;;;;;;;37.88;22.75;;;;;;;3.27;100.00;98949.48;1784094;80;21309;-81
2022/02/08 03:27:30;;;;;;;31.68;20.32;;;;;;;3.29;100.00;98942.92;1783036;80;21325;-81
2022/02/08 03:30:37;;;;;;;33.60;20.75;;;;;;;3.35;100.00;98945.98;1783994;79;21283;-81
2022/02/08 03:33:46;;;;;;;27.37;18.07;;;;;;;3.36;100.00;98955.78;1784020;80;21293;-80
2022/02/08 03:36:52;;;;;;;29.15;19.95;;;;;;;3.35;100.00;98948.69;1783119;80;21608;-81
2022/02/08 03:40:06;;;;;;;29.20;17.85;;;;;;;3.36;100.00;98949.02;1784160;80;21293;-81
2022/02/08 03:43:26;;;;;;;24.70;16.57;;;;;;;3.34;100.00;98949.20;1783857;80;21869;-80
2022/02/08 03:46:22;;;;;;;28.62;18.75;;;;;;;3.35;100.00;98954.94;1783055;80;21341;-79
2022/02/08 03:49:25;;;;;;;26.97;18.20;;;;;;;3.35;100.00;98954.09;1783745;80;21167;-79
2022/02/08 03:52:31;;;;;;;31.30;18.70;;;;;;;3.36;100.00;98953.08;1783519;79;21873;-79
2022/02/08 03:55:36;;;;;;;32.42;19.32;;;;;;;3.36;100.00;98957.13;1756459;80;21837;-79
2022/02/08 03:58:41;;;;;;;31.52;20.40;;;;;;;3.35;100.00;98962.20;1783750;80;21376;-80
2022/02/08 04:02:12;;;;;;;34.88;21.00;;;;;;;3.37;100.00;98962.88;1797368;80;21299;-79
2022/02/08 04:05:23;;;;;;;26.02;17.95;;;;;;;3.38;100.00;98964.05;1797038;80;21346;-80
2022/02/08 04:08:20;;;;;;;34.67;20.48;;;;;;;3.44;100.00;98963.41;1791167;80;21506;-80
2022/02/08 04:11:27;;;;;;;32.28;20.77;;;;;;;3.44;100.00;98967.47;1784684;80;21285;-79
2022/02/08 04:14:58;;;;;;;37.63;23.45;;;;;;;3.45;100.00;98971.86;1782240;80;21302;-79
2022/02/08 04:18:13;;;;;;;38.92;24.00;;;;;;;3.45;100.00;98969.16;1784133;80;21309;-79
2022/02/08 04:35:22;;;;;;;38.15;22.55;;;;;;;3.52;100.00;98973.39;1737628;82;21316;-80
2022/02/08 04:44:13;;;;;;;30.30;19.60;;;;;;;3.58;100.00;98970.05;1716339;83;21307;-78
2022/02/08 04:47:19;;;;;;;34.38;22.65;;;;;;;3.59;100.00;98975.80;1709791;84;21280;-79
2022/02/08 04:50:19;;;;;;;38.40;24.90;;;;;;;3.54;100.00;98976.28;1721776;82;21720;-78
2022/02/08 04:53:33;;;;;;;38.45;25.00;;;;;;;3.51;100.00;98975.76;1730077;82;21307;-79
2022/02/08 05:37:15;;;;;;;32.13;21.80;;;;;;;3.26;100.00;99009.45;1733620;82;21330;-79
2022/02/08 05:43:13;;;;;;;48.40;25.30;;;;;;;3.31;100.00;99010.31;1726146;82;21287;-78
2022/02/08 05:49:24;;;;;;;54.08;27.50;;;;;;;3.37;100.00;99015.58;1725495;82;21360;-79
2022/02/08 05:55:37;;;;;;;41.83;25.30;;;;;;;3.47;100.00;99021.70;1727534;82;21220;-79
2022/02/08 05:58:41;;;;;;;44.80;25.08;;;;;;;3.48;100.00;99025.61;1722799;82;21292;-78
2022/02/08 06:01:48;;;;;;;52.23;27.77;;;;;;;3.46;100.00;99036.23;1724229;82;21311;-79
2022/02/08 06:05:17;;;;;;;47.70;24.32;;;;;;;3.44;100.00;99043.67;1742104;81;22535;-79
2022/02/08 06:08:19;;;;;;;39.70;22.13;;;;;;;3.46;100.00;99053.30;1728075;82;21799;-78
2022/02/08 06:11:26;;;;;;;43.85;23.10;;;;;;;3.44;100.00;99055.84;1729515;82;21810;-78
2022/02/08 06:14:35;;;;;;;40.38;22.48;;;;;;;3.37;100.00;99056.13;1722631;82;21271;-79
2022/02/08 06:17:43;;;;;;;42.85;20.88;;;;;;;3.30;100.00;99056.77;1722927;82;21991;-80
2022/02/08 06:20:52;;;;;;;52.95;22.13;;;;;;;3.25;100.00;99059.11;1730063;81;21525;-79
2022/02/08 06:23:57;;;;;;;48.35;21.17;;;;;;;3.23;100.00;99057.05;1725351;82;21279;-79
2022/02/08 06:27:03;;;;;;;50.90;19.57;;;;;;;3.26;100.00;99056.75;1719205;81;21306;-79
2022/02/08 06:30:08;;;;;;;53.38;20.88;;;;;;;3.30;100.00;99056.77;1724465;82;21279;-79
2022/02/08 06:33:15;;;;;;;47.95;19.12;;;;;;;3.33;100.00;99067.24;1731689;81;21295;-80
2022/02/08 06:36:13;;;;;;;47.62;19.00;;;;;;;3.36;100.00;99072.84;1721880;81;21330;-79
2022/02/08 06:39:21;;;;;;;48.30;19.32;;;;;;;3.38;100.00;99073.52;1726106;82;21310;-80
2022/02/08 06:42:27;;;;;;;42.20;18.12;;;;;;;3.41;100.00;99071.02;1720416;81;21319;-79
2022/02/08 06:45:32;;;;;;;47.33;18.62;;;;;;;3.45;100.00;99071.88;1722664;81;21196;-79
2022/02/08 06:48:39;;;;;;;41.48;18.95;;;;;;;3.50;100.00;99073.59;1744325;81;21224;-79
2022/02/08 06:51:48;;;;;;;42.48;17.98;;;;;;;3.56;100.00;99077.50;1746606;80;21153;-78
2022/02/08 06:55:00;;;;;;;46.77;18.73;;;;;;;3.63;100.00;99079.08;1727455;82;21157;-78
2022/02/08 06:58:09;;;;;;;38.48;17.23;;;;;;;3.72;100.00;99075.40;1700646;82;21333;-78
2022/02/08 07:01:14;;;;;;;32.55;17.90;;;;;;;3.79;100.00;99081.33;1723441;82;21315;-79
2022/02/08 07:04:19;;;;;;;37.48;17.25;;;;;;;3.89;100.00;99077.64;1724989;81;21204;-79
2022/02/08 07:07:23;;;;;;;36.10;18.20;;;;;;;3.96;100.00;99086.31;1723974;81;21350;-79
2022/02/08 07:10:30;;;;;;;30.37;16.75;;;;;;;4.04;100.00;99090.88;1724928;82;21340;-80
2022/02/08 07:13:38;;;;;;;33.48;16.20;;;;;;;4.10;100.00;99099.72;1727076;82;21384;-80
2022/02/08 07:16:45;;;;;;;33.28;16.12;;;;;;;4.13;100.00;99102.08;1726092;82;21244;-79
2022/02/08 07:19:51;;;;;;;35.88;18.15;;;;;;;4.18;100.00;99102.94;1716223;82;21812;-80
2022/02/08 07:22:57;;;;;;;41.60;17.32;;;;;;;4.22;100.00;99102.44;1720175;82;21295;-80
2022/02/08 07:26:04;;;;;;;39.85;16.55;;;;;;;4.22;100.00;99101.09;1747985;81;21294;-80
2022/02/08 07:29:09;;;;;;;42.78;20.00;;;;;;;4.20;100.00;99105.83;1746582;80;21650;-80
2022/02/08 07:32:15;;;;;;;42.70;20.12;;;;;;;4.19;100.00;99112.27;1749971;81;21331;-82
2022/02/08 07:38:35;;;;;;;77.30;32.90;;;;;;;4.29;100.00;99112.12;1723920;82;21245;-79
2022/02/08 07:41:38;;;;;;;101.30;39.63;;;;;;;4.32;100.00;99111.26;1725768;81;21195;-80
2022/02/08 07:44:43;;;;;;;91.28;35.90;;;;;;;4.35;100.00;99109.58;1726444;82;21330;-79
2022/02/08 07:47:49;;;;;;;58.45;26.62;;;;;;;4.39;100.00;99116.03;1724983;81;21366;-79
2022/02/08 07:50:56;;;;;;;57.50;26.27;;;;;;;4.43;100.00;99120.95;1730616;81;21315;-79
2022/02/08 07:54:02;;;;;;;56.80;25.52;;;;;;;4.45;100.00;99116.20;1723741;82;21528;-81
2022/02/08 07:57:08;;;;;;;61.92;28.65;;;;;;;4.47;100.00;99118.73;1729160;81;21571;-80
2022/02/08 08:00:18;;;;;;;71.97;29.02;;;;;;;4.49;100.00;99114.02;1724659;82;21356;-80
2022/02/08 08:03:23;;;;;;;53.10;27.10;;;;;;;4.57;100.00;99118.10;1727236;82;21197;-79
2022/02/08 08:06:29;;;;;;;54.48;25.52;;;;;;;4.66;100.00;99121.64;1745308;81;21331;-80
2022/02/08 08:09:39;;;;;;;53.55;24.55;;;;;;;4.68;100.00;99124.53;1725393;82;22572;-80
2022/02/08 08:12:51;;;;;;;64.30;30.93;;;;;;;4.68;100.00;99132.66;1727525;81;21180;-81
2022/02/08 08:16:00;;;;;;;54.93;25.95;;;;;;;4.67;100.00;99136.39;1726861;81;21185;-81
2022/02/08 08:19:04;;;;;;;45.90;23.73;;;;;;;4.67;100.00;99138.26;1722552;81;21758;-79
2022/02/08 08:22:07;;;;;;;51.70;24.27;;;;;;;4.66;100.00;99142.83;1725721;81;21338;-79
2022/02/08 08:25:12;;;;;;;47.75;25.27;;;;;;;4.61;100.00;99152.81;1723976;81;21314;-80
2022/02/08 08:28:17;;;;;;;45.60;26.10;;;;;;;4.58;100.00;99146.87;1716378;82;21185;-80
2022/02/08 08:31:29;;;;;;;52.35;28.00;;;;;;;4.57;100.00;99143.32;1717568;82;21293;-78
2022/02/08 08:34:40;;;;;;;66.57;29.90;;;;;;;4.59;100.00;99143.14;1713392;82;21376;-79
2022/02/08 08:37:48;;;;;;;70.17;29.87;;;;;;;4.63;100.00;99142.31;1716301;82;21311;-78
2022/02/08 08:41:08;;;;;;;67.20;31.87;;;;;;;4.67;100.00;99144.52;1719708;82;22570;-79
2022/02/08 08:51:39;;;;;;;49.45;28.38;;;;;;;4.86;100.00;99149.63;1770939;79;21366;-84
2022/02/08 08:53:52;;;;;;;69.65;29.23;;;;;;;4.91;100.00;99143.70;1755577;79;21327;-78
2022/02/08 08:56:57;;;;;;;62.23;32.48;;;;;;;4.91;100.00;99137.44;1770491;79;21295;-78
2022/02/08 09:00:04;;;;;;;58.05;32.03;;;;;;;4.96;100.00;99141.33;1767553;79;21582;-79
2022/02/08 09:03:10;;;;;;;49.90;29.90;;;;;;;5.07;100.00;99135.55;1770083;79;21181;-79
2022/02/08 09:06:15;;;;;;;61.00;33.02;;;;;;;5.18;100.00;99132.19;1770418;79;21877;-78
2022/02/08 09:09:24;;;;;;;58.80;33.08;;;;;;;5.25;100.00;99132.67;1772020;79;21214;-78
2022/02/08 09:13:01;;;;;;;73.35;38.75;;;;;;;5.32;100.00;99133.70;1770363;79;21581;-78
2022/02/08 09:22:31;;;;;;;39.95;26.00;;;;;;;5.53;100.00;99135.02;1752143;79;21227;-79
2022/02/08 09:28:42;;;;;;;57.75;34.75;;;;;;;5.58;100.00;99136.18;1706663;82;21370;-79
2022/02/08 09:31:41;;;;;;;49.05;30.88;;;;;;;5.66;100.00;99138.04;1772178;79;21270;-80
2022/02/08 09:34:47;;;;;;;54.18;29.87;;;;;;;5.76;100.00;99146.83;1722956;82;21271;-79
2022/02/08 09:37:53;;;;;;;61.28;33.08;;;;;;;5.77;100.00;99144.44;1772974;79;21864;-79
2022/02/08 09:41:00;;;;;;;45.88;28.67;;;;;;;5.82;100.00;99146.63;1771424;79;21331;-79
2022/02/08 09:44:05;;;;;;;44.05;27.20;;;;;;;5.95;100.00;99150.20;1771504;79;21276;-79
2022/02/08 09:47:16;;;;;;;42.38;26.50;;;;;;;6.08;100.00;99151.85;1770863;79;21190;-79
2022/02/08 09:50:25;;;;;;;53.23;30.82;;;;;;;6.22;100.00;99144.33;1769329;79;21157;-79
2022/02/08 09:53:35;;;;;;;52.35;32.53;;;;;;;6.31;100.00;99143.78;1768305;79;21209;-79
2022/02/08 09:56:39;;;;;;;55.40;31.60;;;;;;;6.33;100.00;99147.98;1774715;79;21208;-80
2022/02/08 09:59:47;;;;;;;47.62;29.07;;;;;;;6.30;100.00;99147.49;1770829;79;21190;-80
2022/02/08 10:02:54;;;;;;;75.35;35.98;;;;;;;6.26;100.00;99148.37;1770953;79;21319;-80
2022/02/08 10:06:01;;;;;;;57.80;31.97;;;;;;;6.24;100.00;99148.20;1772265;79;21299;-79
2022/02/08 10:09:14;;;;;;;55.25;33.95;;;;;;;6.19;99.94;99150.09;1773130;79;21320;-78
2022/02/08 10:12:27;;;;;;;56.88;32.60;;;;;;;6.12;99.62;99150.48;1715194;82;21853;-78
2022/02/08 10:19:37;;;;;;;54.60;30.75;;;;;;;6.02;99.31;99143.91;1669398;83;21233;-80
2022/02/08 10:22:17;;;;;;;56.80;30.55;;;;;;;6.02;99.19;99140.31;1693250;83;21804;-77
2022/02/08 10:28:33;;;;;;;57.17;33.63;;;;;;;6.06;98.91;99145.73;1708720;82;21339;-78
2022/02/08 10:32:03;;;;;;;54.73;31.68;;;;;;;6.08;98.65;99144.55;1723743;82;21782;-78
2022/02/08 10:38:29;;;;;;;38.55;25.12;;;;;;;6.01;98.21;99150.33;1748036;81;21275;-79
2022/02/08 10:41:35;;;;;;;43.28;25.90;;;;;;;5.98;98.39;99146.63;1780749;79;21803;-79
2022/02/08 10:44:44;;;;;;;48.80;27.95;;;;;;;5.99;98.16;99143.40;1783927;79;21172;-78
2022/02/08 10:47:50;;;;;;;38.98;24.23;;;;;;;5.96;97.92;99151.88;1784691;79;21323;-77
2022/02/08 10:50:58;;;;;;;47.73;26.07;;;;;;;5.90;97.77;99152.05;1723096;80;21676;-78
2022/02/08 10:54:09;;;;;;;45.65;26.07;;;;;;;5.86;97.80;99147.98;1784417;79;21984;-78
2022/02/08 10:57:25;;;;;;;41.73;24.20;;;;;;;5.89;98.24;99143.06;1778105;79;21901;-78
2022/02/08 11:00:31;;;;;;;41.18;24.18;;;;;;;5.91;98.29;99144.23;1778837;78;21386;-78
2022/02/08 11:03:47;;;;;;;38.98;23.47;;;;;;;5.95;98.29;99147.48;1784396;79;21184;-79
2022/02/08 11:07:10;;;;;;;43.50;25.35;;;;;;;5.94;98.30;99145.80;1781902;79;21759;-78
2022/02/08 11:13:42;;;;;;;43.87;26.05;;;;;;;5.94;98.32;99158.02;1777800;80;21247;-78
2022/02/08 11:17:20;;;;;;;;;;;;;;;5.89;98.11;99160.70;1757663;81;21338;-78
2022/02/08 11:20:25;;;;;;;42.25;24.23;;;;;;;5.82;98.22;99162.91;1732274;81;20292;-78
2022/02/08 11:23:47;;;;;;;45.00;26.27;;;;;;;5.80;98.62;99171.23;1778487;79;21285;-79
2022/02/08 11:26:45;;;;;;;43.52;25.20;;;;;;;5.79;98.78;99176.85;1779805;79;21909;-79
2022/02/08 11:30:12;;;;;;;48.65;27.10;;;;;;;5.79;98.90;99179.56;1779825;79;21383;-79
2022/02/08 11:33:24;;;;;;;41.23;24.47;;;;;;;5.79;98.95;99181.77;1772897;79;21314;-78
2022/02/08 11:57:13;;;;;;;52.80;29.87;;;;;;;5.58;99.80;99190.95;1775174;79;21203;-80
2022/02/08 12:10:03;;;;;;;52.40;29.52;;;;;;;5.37;100.00;99209.95;1779308;79;21177;-77
2022/02/08 12:13:52;;;;;;;61.90;31.15;;;;;;;5.29;100.00;99207.75;1772310;79;21314;-79
2022/02/08 12:30:53;;;;;;;57.83;28.65;;;;;;;4.83;100.00;99235.30;1771015;79;21862;-79
2022/02/08 12:33:26;;;;;;;66.12;32.55;;;;;;;4.79;100.00;99239.85;1772465;79;21307;-79
2022/02/08 12:57:03;;;;;;;106.90;29.40;;;;;;;4.38;100.00;99278.98;1764833;79;21339;-79
2022/02/08 13:00:24;;;;;;;67.67;26.50;;;;;;;4.31;100.00;99280.12;1843994;76;22234;-79
2022/02/08 13:03:37;;;;;;;125.50;31.65;;;;;;;4.26;100.00;99282.47;1818636;77;21519;-79
2022/02/08 13:14:29;;;;;;;99.58;30.95;;;;;;;4.24;100.00;99291.27;1815048;77;21340;-80
2022/02/08 13:20:20;;;;;;;71.80;28.75;;;;;;;4.05;100.00;99319.40;1781870;77;21175;-79
2022/02/08 14:07:20;;;;;;;92.22;48.02;;;;;;;2.77;100.00;99371.02;1740330;79;21514;-80
2022/02/08 14:10:49;;;;;;;82.53;42.95;;;;;;;2.69;100.00;99381.73;1786440;79;21283;-80
2022/02/08 14:13:59;;;;;;;72.25;41.63;;;;;;;2.63;100.00;99386.35;1778942;79;21338;-79
2022/02/08 14:17:30;;;;;;;63.00;39.20;;;;;;;2.56;100.00;99398.76;1725551;82;21185;-79
2022/02/08 14:30:03;;;;;;;63.75;35.83;;;;;;;2.34;100.00;99411.25;1777570;79;21265;-79
2022/02/08 14:36:50;;;;;;;69.55;39.48;;;;;;;2.26;100.00;99411.99;1782237;79;21173;-79
2022/02/08 15:06:51;;;;;;;48.02;29.40;;;;;;;1.98;100.00;99435.31;1769632;81;21330;-80
2022/02/08 15:09:25;;;;;;;51.20;29.50;;;;;;;1.96;100.00;99442.17;1769462;81;21319;-80
2022/02/08 15:12:29;;;;;;;44.75;28.92;;;;;;;1.96;100.00;99444.03;1702415;84;21208;-80
2022/02/08 15:16:00;;;;;;;51.70;31.55;;;;;;;1.94;100.00;99450.92;1768771;81;21341;-80
2022/02/08 15:18:47;;;;;;;53.30;32.13;;;;;;;1.93;100.00;99455.09;1768622;81;21302;-81
2022/02/08 15:21:55;;;;;;;45.67;28.27;;;;;;;1.94;100.00;99460.86;1770009;81;21325;-81
2022/02/08 15:25:00;;;;;;;44.08;28.80;;;;;;;1.94;100.00;99465.76;1770257;81;21179;-80
2022/02/08 15:28:09;;;;;;;61.15;35.20;;;;;;;1.94;100.00;99468.95;1768746;81;22247;-80
2022/02/08 15:31:17;;;;;;;54.73;31.95;;;;;;;1.92;100.00;99465.53;1768845;81;21589;-79
2022/02/08 15:34:22;;;;;;;54.73;34.48;;;;;;;1.91;100.00;99463.83;1770005;81;21876;-80
2022/02/08 15:37:30;;;;;;;51.95;32.15;;;;;;;1.89;100.00;99463.98;1770116;81;21270;-80
2022/02/08 15:40:35;;;;;;;54.10;34.05;;;;;;;1.86;100.00;99471.50;1769442;81;21242;-80
2022/02/08 15:43:41;;;;;;;50.88;32.13;;;;;;;1.80;100.00;99479.66;1770133;81;21596;-78
2022/02/08 15:46:47;;;;;;;53.78;34.88;;;;;;;1.78;100.00;99482.98;1768670;81;21891;-78
2022/02/08 15:49:56;;;;;;;48.58;33.13;;;;;;;1.76;100.00;99495.76;1770080;81;21964;-79
2022/02/08 15:56:50;;;;;;;50.75;33.30;;;;;;;1.71;100.00;99484.05;1768450;81;21301;-78
2022/02/08 16:13:09;;;;;;;44.85;31.07;;;;;;;1.49;100.00;99501.30;1769865;81;21368;-79
2022/02/08 16:19:44;;;;;;;41.15;28.05;;;;;;;1.46;100.00;99500.25;1799761;79;21246;-80
2022/02/08 16:29:17;;;;;;;33.95;24.25;;;;;;;1.42;100.00;99515.48;1801730;79;21271;-78
2022/02/08 17:01:39;;;;;;;41.55;29.05;;;;;;;1.24;100.00;99546.26;1772356;79;21959;-79
2022/02/08 17:04:45;;;;;;;40.65;27.35;;;;;;;1.25;100.00;99548.81;1769082;81;21179;-79
2022/02/08 17:07:52;;;;;;;43.98;27.13;;;;;;;1.27;100.00;99552.70;1767423;81;21209;-79
2022/02/08 17:11:00;;;;;;;35.60;24.92;;;;;;;1.26;100.00;99550.51;1765561;81;21241;-79
2022/02/08 17:14:36;;;;;;;40.52;26.27;;;;;;;1.24;100.00;99559.23;1768766;81;21307;-79
2022/02/08 17:47:30;;;;;;;25.75;17.90;;;;;;;1.06;100.00;99578.35;1769015;81;21215;-78
2022/02/08 17:50:21;;;;;;;24.85;17.07;;;;;;;1.05;100.00;99567.22;1767404;81;21195;-78
2022/02/08 17:53:26;;;;;;;24.92;17.60;;;;;;;1.04;100.00;99572.26;1767347;81;21929;-78
2022/02/08 17:56:31;;;;;;;23.25;15.95;;;;;;;1.03;100.00;99569.18;1767416;81;22221;-79
2022/02/08 17:59:37;;;;;;;21.75;14.70;;;;;;;1.01;100.00;99576.05;1768876;81;21307;-79
2022/02/08 18:02:48;;;;;;;19.20;13.62;;;;;;;1.00;100.00;99583.78;1772584;81;21777;-78
2022/02/08 18:05:51;;;;;;;20.08;14.00;;;;;;;1.00;100.00;99575.70;1710866;84;21327;-78
2022/02/08 18:08:57;;;;;;;20.17;14.13;;;;;;;1.02;100.00;99586.33;1710918;84;21290;-78
2022/02/08 18:12:03;;;;;;;17.25;12.40;;;;;;;1.02;100.00;99589.03;1723301;83;21245;-79
2022/02/08 18:15:12;;;;;;;16.12;11.40;;;;;;;0.98;100.00;99582.20;1770807;81;21302;-79
2022/02/08 18:18:29;;;;;;;15.72;11.43;;;;;;;0.93;100.00;99597.41;1768472;81;21898;-78
2022/02/08 18:21:36;;;;;;;13.70;9.75;;;;;;;0.93;100.00;99600.59;1769062;81;21869;-78
2022/02/08 19:18:28;;;;;;;19.42;13.85;;;;;;;0.76;100.00;99643.78;1784181;80;21872;-78
2022/02/08 19:24:30;;;;;;;20.35;13.88;;;;;;;0.76;100.00;99650.02;1782891;80;21672;-78
2022/02/08 19:27:37;;;;;;;19.17;12.60;;;;;;;0.78;100.00;99648.53;1782934;80;21341;-78
2022/02/08 19:30:42;;;;;;;19.80;14.13;;;;;;;0.80;100.00;99653.78;1782245;80;21190;-78
2022/02/08 19:33:49;;;;;;;19.65;13.38;;;;;;;0.81;100.00;99662.24;1782208;80;21214;-79
2022/02/08 19:36:57;;;;;;;22.67;14.68;;;;;;;0.82;100.00;99662.10;1783879;80;21863;-79
2022/02/08 19:40:02;;;;;;;18.37;13.70;;;;;;;0.81;100.00;99656.36;1784423;80;21411;-79
2022/02/08 19:43:10;;;;;;;21.52;13.30;;;;;;;0.84;100.00;99652.54;1783968;80;21333;-78
2022/02/08 19:46:16;;;;;;;19.95;13.58;;;;;;;0.82;100.00;99661.25;1813684;79;21310;-79
2022/02/08 19:49:22;;;;;;;22.17;13.62;;;;;;;0.82;100.00;99666.64;1815622;79;21326;-79
2022/02/08 19:52:31;;;;;;;23.10;14.03;;;;;;;0.82;100.00;99670.67;1815915;79;21291;-79
2022/02/08 19:55:47;;;;;;;19.40;13.10;;;;;;;0.79;100.00;99658.81;1746927;82;21317;-78
2022/02/08 19:58:49;;;;;;;20.10;13.38;;;;;;;0.76;100.00;99670.21;1745428;82;21913;-79
2022/02/08 20:01:55;;;;;;;21.30;12.50;;;;;;;0.73;100.00;99674.50;1717500;83;21338;-79
2022/02/08 20:05:01;;;;;;;21.85;12.20;;;;;;;0.71;100.00;99672.44;1712670;83;21350;-79
2022/02/08 20:08:09;;;;;;;18.20;13.00;;;;;;;0.68;100.00;99671.84;1770108;81;21326;-79
2022/02/08 20:11:14;;;;;;;19.57;12.45;;;;;;;0.66;100.00;99674.67;1768681;81;21865;-78
2022/02/08 20:14:21;;;;;;;17.65;11.90;;;;;;;0.63;100.00;99676.26;1769409;81;21596;-79
2022/02/08 20:17:27;;;;;;;22.75;11.80;;;;;;;0.61;100.00;99683.63;1768474;81;21286;-79
2022/02/08 20:20:34;;;;;;;17.12;11.55;;;;;;;0.59;100.00;99674.80;1769214;81;21389;-80
2022/02/08 20:23:38;;;;;;;18.70;11.50;;;;;;;0.58;100.00;99678.48;1770130;81;21294;-79
2022/02/08 20:27:03;;;;;;;17.02;10.98;;;;;;;0.59;100.00;99688.75;1770242;81;21325;-79
2022/02/08 20:29:56;;;;;;;19.10;11.80;;;;;;;0.54;100.00;99674.33;1770351;81;21317;-79
2022/02/08 20:33:04;;;;;;;19.60;11.20;;;;;;;0.50;100.00;99678.26;1770098;81;21340;-78
2022/02/08 20:36:09;;;;;;;17.20;11.30;;;;;;;0.49;100.00;99684.62;1769060;81;21345;-79
2022/02/08 20:39:15;;;;;;;22.65;11.18;;;;;;;0.48;100.00;99689.16;1770057;81;21298;-78
2022/02/08 20:42:25;;;;;;;18.75;11.50;;;;;;;0.49;100.00;99700.78;1769944;81;21306;-78
2022/02/08 20:45:28;;;;;;;20.12;12.03;;;;;;;0.48;100.00;99704.45;1768778;81;21313;-78
2022/02/08 20:48:34;;;;;;;24.65;13.25;;;;;;;0.46;100.00;99695.64;1770076;81;21691;-78
2022/02/08 20:51:43;;;;;;;20.72;13.22;;;;;;;0.46;100.00;99697.83;1768762;81;21873;-78
2022/02/08 20:55:03;;;;;;;24.87;12.58;;;;;;;0.47;100.00;99710.33;1769589;81;21195;-78
2022/02/08 20:58:04;;;;;;;25.35;12.78;;;;;;;0.45;100.00;99704.70;1770124;81;21382;-78
2022/02/08 21:01:08;;;;;;;;;;;;;;;0.44;100.00;99709.72;1772665;79;21281;-79
2022/02/08 21:04:28;;;;;;;27.98;15.78;;;;;;;0.42;100.00;99704.94;1769503;79;20239;-79
2022/02/08 21:07:23;;;;;;;28.00;16.10;;;;;;;0.39;100.00;99709.25;1773174;80;21876;-79
2022/02/08 21:10:30;;;;;;;26.35;15.88;;;;;;;0.36;100.00;99709.48;1775424;81;21182;-79
2022/02/08 21:13:50;;;;;;;27.13;13.80;;;;;;;0.34;100.00;99693.98;1774543;81;21847;-79
2022/02/08 21:17:00;;;;;;;24.45;13.58;;;;;;;0.34;100.00;99705.59;1773958;81;21782;-79
2022/02/08 21:20:06;;;;;;;21.37;11.65;;;;;;;0.33;100.00;99693.59;1709071;84;21824;-79
2022/02/08 21:23:11;;;;;;;21.90;12.10;;;;;;;0.33;100.00;99686.86;1712717;83;21979;-79
2022/02/08 21:26:22;;;;;;;17.67;10.53;;;;;;;0.32;100.00;99690.05;1737717;82;21849;-79
2022/02/08 21:33:11;;;;;;;24.40;11.75;;;;;;;0.25;100.00;99692.89;1743811;82;21194;-78
2022/02/08 21:49:35;;;;;;;17.90;9.40;;;;;;;0.11;100.00;99677.88;1650752;84;21218;-81
2022/02/08 21:52:32;;;;;;;16.27;8.35;;;;;;;0.07;100.00;99687.67;1711684;83;21904;-80
2022/02/08 21:55:37;;;;;;;17.70;9.65;;;;;;;0.04;100.00;99683.88;1737504;82;21935;-79
2022/02/08 21:58:36;;;;;;;15.38;8.83;;;;;;;0.02;100.00;99688.04;1737986;82;21305;-79